Latest Weather Observations for Avalon

IDV60901

Issued at 12:21 am EST Thursday 3 September 2026 (issued every 10 minutes, with the page automatically refreshed every 10 minutes)

About weather observations | Map of Melbourne area stations | Latest observations for Melbourne area | Other Formats
Station Details ID: 087113 Name: AVALON AIRPORT Lat: -38.03 Lon: 144.48 Height: 10.6 m
Data from the previous 72 hours. | See also: Recent months at Avalon
Date/Time
EST
Temp
°C
App
Temp
°C
Dew
Point
°C
Rel
Hum
%
Delta-T
°C
Wind Press
QNH
hPa
Press
MSL
hPa
Rain since
9am
mm
Dir  Spd
km/h
Gust
km/h
Spd
kts
Gust
kts
03/12:00am 8.5 4.8 4.5 76 1.8 NW 13 15 7 8 1010.3 1010.3 0.0
 
Date/Time
EST
Temp
°C
App
Temp
°C
Dew
Point
°C
Rel
Hum
%
Delta-T
°C
Wind Press
QNH
hPa
Press
MSL
hPa
Rain since
9am
mm
Dir  Spd
km/h
Gust
km/h
Spd
kts
Gust
kts
02/11:30pm 8.3 4.6 4.5 77 1.7 NNW 13 15 7 8 1010.7 1010.7 0.0
02/11:00pm 8.1 4.0 4.3 77 1.7 NNW 15 17 8 9 1011.1 1011.1 0.0
02/10:30pm 10.0 6.3 4.6 69 2.4 NW 13 17 7 9 1011.4 1011.4 0.0
02/10:00pm 12.0 7.6 4.7 61 3.3 NW 17 20 9 11 1011.6 1011.6 0.0
02/09:30pm 12.8 7.3 5.7 62 3.3 NW 24 32 13 17 1012.0 1012.0 0.0
02/09:00pm 12.8 7.2 5.5 61 3.4 WNW 24 32 13 17 1011.5 1011.5 0.0
02/08:30pm 11.2 9.3 6.9 75 2.0 NNW 6 11 3 6 1011.8 1011.8 0.0
02/08:00pm 11.7 8.5 7.0 73 2.2 NW 13 15 7 8 1011.8 1011.8 0.0
02/07:30pm 11.9 8.3 6.8 71 2.4 WNW 15 19 8 10 1011.5 1011.5 0.0
02/07:00pm 11.1 7.1 6.8 75 2.0 W 17 22 9 12 1011.2 1011.2 0.0
02/06:30pm 11.6 8.4 6.9 73 2.2 W 13 17 7 9 1010.9 1010.9 0.0
02/06:00pm 12.8 10.3 6.6 66 3.0 W 9 13 5 7 1011.0 1011.0 0.0
02/05:30pm 13.9 10.4 7.0 63 3.4 W 15 22 8 12 1010.7 1010.7 0.0
02/05:00pm 15.1 11.2 6.9 58 4.0 W 17 24 9 13 1010.9 1010.9 0.0
02/04:30pm 15.5 11.0 7.0 57 4.2 W 20 28 11 15 1011.1 1011.1 0.0
02/04:00pm 15.7 10.4 6.7 55 4.4 WNW 24 35 13 19 1011.6 1011.6 0.0
02/03:30pm 15.8 10.0 6.3 53 4.6 W 26 35 14 19 1012.0 1012.0 0.0
02/03:00pm 16.1 10.4 6.5 53 4.7 W 26 33 14 18 1012.2 1012.2 0.0
02/02:30pm 15.6 9.6 5.5 51 4.8 W 26 37 14 20 1012.4 1012.4 0.0
02/02:00pm 15.6 9.7 5.8 52 4.7 W 26 39 14 21 1012.7 1012.7 0.0
02/01:30pm 15.1 9.0 5.0 51 4.7 W 26 35 14 19 1012.8 1012.8 0.0
02/01:00pm 15.5 9.4 6.8 56 4.3 W 28 37 15 20 1013.2 1013.2 0.0
02/12:30pm 15.3 10.0 6.8 57 4.2 W 24 33 13 18 1013.9 1013.9 0.0
02/12:00pm 14.3 8.9 6.4 59 3.8 WNW 24 32 13 17 1014.6 1014.6 0.0
02/11:30am 13.6 8.5 6.0 60 3.6 WNW 22 32 12 17 1015.0 1015.0 0.0
02/11:00am 12.5 7.2 5.2 61 3.4 WNW 22 28 12 15 1015.2 1015.2 0.0
02/10:30am 12.4 6.3 4.9 60 3.4 NW 26 33 14 18 1015.4 1015.4 0.0
02/10:00am 12.7 6.6 4.9 59 3.6 WNW 26 35 14 19 1015.6 1015.6 0.0
02/09:30am 12.5 7.4 5.9 64 3.1 WNW 22 28 12 15 1015.7 1015.7 0.0
02/09:00am 12.3 7.8 7.0 70 2.5 WNW 20 26 11 14 1015.8 1015.8 0.0
02/08:30am 12.4 8.6 7.5 72 2.4 WNW 17 24 9 13 1015.6 1015.6 0.0
02/08:00am 11.5 8.5 7.8 78 1.8 NW 13 17 7 9 1015.4 1015.4 0.0
02/07:30am 10.9 7.9 7.6 80 1.6 WNW 13 17 7 9 1015.1 1015.1 0.0
02/07:00am 10.2 7.1 7.4 83 1.3 WNW 13 17 7 9 1014.7 1014.7 0.0
02/06:30am 9.7 6.6 7.3 85 1.1 WNW 13 17 7 9 1014.3 1014.3 0.0
02/06:00am 10.2 6.8 7.8 85 1.2 WNW 15 19 8 10 1014.1 1014.1 0.0
02/05:30am 10.7 7.0 8.1 84 1.3 W 17 22 9 12 1013.8 1013.8 0.0
02/05:00am 12.0 8.5 8.8 81 1.6 W 17 24 9 13 1013.8 1013.8 0.0
02/04:30am 12.1 9.2 9.5 84 1.3 W 15 19 8 10 1013.1 1013.1 0.0
02/04:00am 12.2 9.0 9.8 85 1.2 W 17 22 9 12 1013.0 1013.0 0.0
02/03:30am 12.3 9.1 9.9 85 1.2 W 17 22 9 12 1013.0 1013.0 0.0
02/03:00am 13.0 8.5 10.0 82 1.5 WSW 24 30 13 16 1012.8 1012.8 0.0
02/02:30am 13.8 8.6 10.4 80 1.8 WSW 28 35 15 19 1012.7 1012.7 0.0
02/02:00am 15.5 12.6 11.1 75 2.4 WNW 17 22 9 12 1012.3 1012.3 0.0
02/01:30am 15.7 12.7 10.7 72 2.7 NW 17 24 9 13 1012.2 1012.2 0.0
02/01:00am 15.6 12.6 10.6 72 2.6 NW 17 24 9 13 1012.2 1012.2 0.0
02/12:30am 16.0 12.4 10.7 71 2.8 WNW 20 28 11 15 1012.1 1012.1 0.0
02/12:00am 15.9 11.9 10.4 70 2.9 WNW 22 30 12 16 1012.1 1012.1 0.0
 
Date/Time
EST
Temp
°C
App
Temp
°C
Dew
Point
°C
Rel
Hum
%
Delta-T
°C
Wind Press
QNH
hPa
Press
MSL
hPa
Rain since
9am
mm
Dir  Spd
km/h
Gust
km/h
Spd
kts
Gust
kts
01/11:30pm 16.7 12.3 10.5 67 3.3 NW 24 35 13 19 1012.2 1012.2 0.0
01/11:00pm 16.8 12.4 10.4 66 3.4 WNW 24 33 13 18 1012.4 1012.4 0.0
01/10:30pm 16.6 12.1 10.2 66 3.4 NW 24 35 13 19 1012.2 1012.2 0.0
01/10:00pm 17.2 11.9 9.9 62 3.8 NW 28 43 15 23 1011.9 1011.9 0.0
01/09:30pm 16.9 13.2 10.1 64 3.6 NNW 20 32 11 17 1011.7 1011.7 0.0
01/09:00pm 16.4 12.9 10.3 67 3.2 NNW 19 24 10 13 1011.7 1011.7 0.0
01/08:30pm 16.6 13.2 10.7 68 3.1 NW 19 26 10 14 1012.0 1012.0 0.0
01/08:00pm 16.8 12.8 10.6 67 3.3 NNW 22 32 12 17 1011.8 1011.8 0.0
01/07:30pm 16.6 13.4 11.1 70 3.0 NNW 19 24 10 13 1011.9 1011.9 0.0
01/07:00pm 17.2 11.3 10.6 65 3.5 NNW 32 46 17 25 1012.2 1012.2 0.0
01/06:30pm 18.5 13.9 9.8 57 4.6 NNW 24 32 13 17 1012.2 1012.2 0.0
01/06:00pm 19.1 13.9 8.7 51 5.4 NNW 26 35 14 19 1012.4 1012.4 0.0
01/05:30pm 19.4 14.1 8.4 49 5.7 NNW 26 35 14 19 1012.6 1012.6 0.0
01/05:00pm 19.5 13.4 8.2 48 5.8 NNW 30 43 16 23 1012.7 1012.7 0.0
01/04:30pm 19.7 14.3 8.1 47 6.0 NNW 26 37 14 20 1012.7 1012.7 0.0
01/04:00pm 19.9 13.7 7.9 46 6.2 NNW 30 44 16 24 1012.8 1012.8 0.0
01/03:30pm 20.2 14.6 7.2 43 6.6 NW 26 39 14 21 1012.9 1012.9 0.0
01/03:00pm 20.1 14.3 7.8 45 6.3 NNW 28 39 15 21 1012.9 1012.9 0.0
01/02:30pm 20.2 14.5 8.2 46 6.2 NNW 28 37 15 20 1012.6 1012.6 0.0
01/02:10pm 20.8 13.9 7.1 41 7.0 NNW 33 50 18 27 1012.7 1012.7 0.0
01/02:00pm 21.4 14.3 8.0 42 7.0 NNW 35 54 19 29 1012.9 1012.9 0.0
01/01:30pm 21.4 13.8 7.6 41 7.1 NNW 37 52 20 28 1013.2 1013.2 0.0
01/01:00pm 21.3 13.8 6.4 38 7.5 NW 35 57 19 31 1014.2 1014.2 0.0
01/12:30pm 20.9 12.0 6.8 40 7.2 NW 43 63 23 34 1015.0 1015.0 0.0
01/12:00pm 21.1 14.2 7.3 41 7.1 NW 33 52 18 28 1015.7 1015.7 0.0
01/11:54am 21.5 14.8 8.1 42 7.0 NW 33 52 18 28 1015.8 1015.8 0.0
01/11:47am 20.9 12.5 7.2 41 7.0 NW 41 52 22 28 1015.9 1015.9 0.0
01/11:33am 21.2 15.7 7.4 41 7.1 NW 26 48 14 26 1016.3 1016.3 0.0
01/11:30am 21.1 16.0 7.7 42 6.9 NNW 24 48 13 26 1016.3 1016.3 0.0
01/11:11am 20.4 13.5 7.1 42 6.8 N 33 46 18 25 1016.8 1016.8 0.0
01/11:01am 20.8 14.3 8.8 46 6.3 NNW 33 52 18 28 1017.0 1017.0 0.0
01/11:00am 20.8 14.0 9.1 47 6.2 NNW 35 52 19 28 1017.0 1017.0 0.0
01/10:59am 20.5 13.1 8.2 45 6.4 NNW 37 52 20 28 1017.0 1017.0 0.0
01/10:40am 19.9 12.0 6.3 41 6.8 N 37 61 20 33 1016.8 1016.8 0.0
01/10:30am 19.7 12.3 6.8 43 6.5 NNW 35 46 19 25 1017.0 1017.0 0.0
01/10:00am 18.9 14.0 8.6 51 5.3 N 24 43 13 23 1017.4 1017.4 0.0
01/09:30am 16.5 12.2 10.6 68 3.1 NNE 24 32 13 17 1018.1 1018.1 0.0
01/09:00am 15.2 11.6 10.4 73 2.5 NNE 20 26 11 14 1018.8 1018.8 0.0
01/08:30am 12.9 9.1 9.7 81 1.6 NNE 20 26 11 14 1019.4 1019.4 0.0
01/08:00am 11.7 8.2 8.9 83 1.4 N 17 20 9 11 1019.9 1019.9 0.0
01/07:30am 9.8 7.3 8.1 89 0.8 N 11 17 6 9 1020.2 1020.2 0.0
01/07:00am 9.5 6.9 7.9 90 0.8 N 11 13 6 7 1020.2 1020.2 0.0
01/06:30am 8.1 5.3 7.0 93 0.5 NNE 11 13 6 7 1020.2 1020.2 0.0
01/06:00am 9.4 6.5 8.3 93 0.5 NNE 13 15 7 8 1020.3 1020.3 0.0
01/05:30am 6.8 5.8 5.6 92 0.5 CALM 0 0 0 0 1020.7 1020.7 0.0
01/05:00am 8.4 6.3 6.7 89 0.8 N 7 9 4 5 1020.8 1020.8 0.0
01/04:30am 8.5 6.6 6.8 89 0.8 N 6 9 3 5 1020.9 1020.9 0.0
01/04:00am 10.0 6.3 7.8 86 1.1 N 17 22 9 12 1021.1 1021.1 0.0
01/03:30am 5.8 2.9 4.6 92 0.5 NNW 9 11 5 6 1021.5 1021.5 0.0
01/03:00am 5.9 3.5 5.2 95 0.3 NNW 7 9 4 5 1021.9 1021.9 0.0
01/02:54am 6.0 3.2 5.3 95 0.3 N 9 11 5 6 1022.1 1022.1 0.0
01/02:43am 4.9 2.3 4.2 95 0.3 NE 7 13 4 7 1022.3 1022.3 0.0
01/02:30am 4.8 3.5 4.1 95 0.3 CALM 0 0 0 0 1022.6 1022.6 0.0
01/02:01am 4.5 3.1 3.6 94 0.4 CALM 0 0 0 0 1023.0 1023.0 0.0
01/02:00am 4.3 2.9 3.4 94 0.4 CALM 0 0 0 0 1023.0 1023.0 0.0
01/01:47am 5.7 4.6 5.0 95 0.3 CALM 0 0 0 0 1023.2 1023.2 0.0
01/01:36am 5.5 4.3 4.6 94 0.4 CALM 0 0 0 0 1023.2 1023.2 0.0
01/01:30am 5.5 4.3 4.6 94 0.4 CALM 0 0 0 0 1023.3 1023.3 0.0
01/01:19am 6.2 5.2 5.5 95 0.3 CALM 0 0 0 0 1023.6 1023.6 0.0
01/01:00am 5.4 4.2 4.5 94 0.4 CALM 0 0 0 0 1023.7 1023.7 0.0
01/12:30am 5.1 3.8 3.9 92 0.5 CALM 0 0 0 0 1024.0 1024.0 0.0
01/12:00am 6.7 4.9 5.5 92 0.5 WNW 4 6 2 3 1024.5 1024.5 0.0
 
Date/Time
EST
Temp
°C
App
Temp
°C
Dew
Point
°C
Rel
Hum
%
Delta-T
°C
Wind Press
QNH
hPa
Press
MSL
hPa
Rain since
9am
mm
Dir  Spd
km/h
Gust
km/h
Spd
kts
Gust
kts
31/11:30pm 7.5 5.8 6.0 90 0.7 NNE 4 9 2 5 1024.9 1024.9 0.0
31/11:00pm 9.9 7.7 7.8 87 1.0 NNE 9 13 5 7 1025.4 1025.4 0.0
31/10:30pm 10.5 7.5 7.9 84 1.3 NNE 13 15 7 8 1025.8 1025.8 0.0
31/10:00pm 10.5 8.0 8.1 85 1.2 N 11 15 6 8 1026.1 1026.1 0.0
31/09:30pm 10.5 8.0 8.4 87 1.0 NNE 11 15 6 8 1026.3 1026.3 0.0
31/09:00pm 9.3 7.4 7.6 89 0.8 NNE 7 13 4 7 1026.5 1026.5 0.0
31/08:30pm 9.1 7.3 7.2 88 0.9 NNE 6 9 3 5 1026.7 1026.7 0.0
31/08:00pm 9.8 8.1 8.2 90 0.8 NE 7 9 4 5 1026.9 1026.9 0.0
31/07:30pm 8.8 6.8 6.3 84 1.1 NE 6 6 3 3 1027.0 1027.0 0.0
31/07:00pm 10.3 8.7 7.9 85 1.1 NE 6 7 3 4 1027.1 1027.1 0.0
31/06:30pm 11.5 9.6 9.1 85 1.2 ENE 9 11 5 6 1027.1 1027.1 0.0
31/06:00pm 10.9 8.8 8.1 83 1.4 ENE 9 11 5 6 1027.3 1027.3 0.0
31/05:30pm 13.4 11.6 9.3 76 2.1 ENE 9 11 5 6 1027.3 1027.3 0.0
31/05:00pm 13.9 12.1 9.3 74 2.3 NE 9 11 5 6 1027.5 1027.5 0.0
31/04:30pm 14.1 11.5 9.3 73 2.5 ENE 13 17 7 9 1027.5 1027.5 0.0
31/04:00pm 14.6 12.8 9.6 72 2.6 E 9 11 5 6 1027.9 1027.9 0.0
31/03:30pm 14.6 12.8 9.6 72 2.6 E 9 13 5 7 1028.3 1028.3 0.0
31/03:00pm 14.1 11.9 9.5 74 2.3 ESE 11 15 6 8 1028.5 1028.5 0.0
31/02:30pm 13.6 11.0 9.3 75 2.2 ESE 13 15 7 8 1028.9 1028.9 0.0
31/02:00pm 13.8 11.3 9.6 76 2.1 ESE 13 19 7 10 1029.5 1029.5 0.0
31/01:30pm 13.1 10.5 9.2 77 2.0 ESE 13 17 7 9 1030.0 1030.0 0.0
31/01:00pm 14.1 12.2 8.9 71 2.6 ESE 9 13 5 7 1030.4 1030.4 0.0
31/12:30pm 13.3 11.6 8.2 71 2.5 S 7 11 4 6 1031.0 1031.0 0.0
31/12:00pm 12.9 11.3 8.2 73 2.3 SW 6 11 3 6 1031.5 1031.5 0.0
31/11:37am 13.0 12.5 7.7 70 2.6 CALM 0 0 0 0 1032.0 1032.0 0.0
31/11:30am 12.3 11.1 8.2 76 2.0 NW 4 9 2 5 1032.1 1032.1 0.0
31/11:00am 10.6 8.8 7.1 79 1.6 NW 6 9 3 5 1032.5 1032.5 0.0
31/10:30am 9.9 7.5 7.2 83 1.3 WSW 9 13 5 7 1032.7 1032.7 0.0
31/10:00am 9.4 6.2 6.7 83 1.2 WNW 13 17 7 9 1032.8 1032.8 0.0
31/09:30am 9.2 6.0 6.8 85 1.1 NW 13 17 7 9 1032.9 1032.9 0.0
31/09:00am 8.9 5.7 6.7 86 1.0 NW 13 17 7 9 1032.9 1032.9 0.0
31/08:30am 8.8 6.0 6.8 87 0.9 NW 11 15 6 8 1032.9 1032.9 0.0
31/08:00am 8.6 5.3 6.6 87 0.9 WNW 13 15 7 8 1032.8 1032.8 0.0
31/07:30am 8.5 5.2 6.6 88 0.9 WNW 13 17 7 9 1032.6 1032.6 0.0
31/07:00am 8.5 5.6 6.6 88 0.9 WNW 11 13 6 7 1032.6 1032.6 0.0
31/06:30am 8.5 5.6 6.6 88 0.9 WNW 11 13 6 7 1032.5 1032.5 0.0
31/06:00am 8.7 5.5 6.8 88 0.9 NW 13 15 7 8 1032.3 1032.3 0.0
31/05:30am 8.8 4.9 6.9 88 0.9 WNW 17 22 9 12 1032.3 1032.3 0.0
31/05:26am 8.8 4.5 6.9 88 0.9 WNW 19 22 10 12 1032.3 1032.3 0.0
31/05:00am 8.8 4.3 6.9 88 0.9 WNW 20 26 11 14 1032.0 1032.0 0.0
31/04:30am 8.8 4.3 6.9 88 0.9 WNW 20 24 11 13 1032.2 1032.2 0.0
31/04:00am 8.8 4.9 7.1 89 0.8 WNW 17 20 9 11 1032.2 1032.2 0.0
31/03:30am 9.1 5.3 7.4 89 0.8 W 17 19 9 10 1032.4 1032.4 0.0
31/03:00am 9.4 6.4 7.8 90 0.8 W 13 17 7 9 1032.7 1032.7 0.0
31/02:30am 9.5 6.5 7.8 89 0.8 W 13 19 7 10 1032.8 1032.8 0.0
31/02:00am 9.8 6.9 8.1 89 0.8 WNW 13 17 7 9 1032.9 1032.9 0.0
31/01:30am 9.6 7.4 8.0 90 0.8 W 9 11 5 6 1032.8 1032.8 0.0
31/01:00am 10.0 7.1 8.3 89 0.8 WNW 13 17 7 9 1032.7 1032.7 0.0
31/12:30am 9.9 7.4 8.2 89 0.8 WNW 11 17 6 9 1032.8 1032.8 0.0

Latest Capital City Observations: Canberra | Sydney | Melbourne | Brisbane | Adelaide | Perth | Hobart | Darwin

Other formats

Comma delimited format used in spreadsheet applications
http://www.bom.gov.au/fwo/IDV60901/IDV60901.94854.axf

JavaScript Object Notation format (JSON) in row-major order
http://www.bom.gov.au/fwo/IDV60901/IDV60901.94854.json

Data quality

Most of these data are generated automatically and are frequently updated. Quality checks on data are not normally performed. It is possible for incorrect values to appear. Refer to information at About Latest Weather Observations and please check the disclaimer before using these data.